Wainwright, Alaska
Current Conditions -  °F | °C
As of 9:53 PM on Saturday 22 Nov 2014 (Local Time) from PAWI Reporting Station
Clear Clear  
Wind Chill: -19°   Ceiling: Unl
Heat Index: -2°   Visibility: 8mi
Dew Point: -7°   Wind: 10mph
Humidity: 79%   Direction: 100°E
Pressure: 29.63"   Gusts: NA
Location:  70.64°N, 160.04°W
Report Text: PAWI 230653Z AUTO 10009KT 8SM CLR M19/M22 A2963 RMK SLP034 T11891217 TSNO VIA AUTODIAL
Loading
Personal Weather Stations






























Interactive Weather Map New forecast layout! Learn more

10-Day Weather Forecast

Advertisements
Track Severe Weather on mobile